createdAt,value
2017-09-23T00:01:49.467Z,80.30
2017-09-23T00:04:17.000Z,80.40
2017-09-23T00:06:44.584Z,80.90
2017-09-23T00:09:12.114Z,81.00
2017-09-23T00:11:39.647Z,80.90
2017-09-23T00:14:07.231Z,80.80
2017-09-23T00:16:34.772Z,80.90
2017-09-23T00:19:03.070Z,80.00
2017-09-23T00:21:30.638Z,80.70
2017-09-23T00:23:58.193Z,80.80
2017-09-23T00:26:26.485Z,81.10
2017-09-23T00:28:54.048Z,81.10
2017-09-23T00:31:21.580Z,81.00
2017-09-23T00:33:49.116Z,80.70
2017-09-23T00:36:16.691Z,80.10
2017-09-23T00:38:45.011Z,79.90
2017-09-23T00:41:14.235Z,79.80
2017-09-23T00:43:41.811Z,79.70
2017-09-23T00:46:09.368Z,79.70
2017-09-23T00:48:37.571Z,79.50
2017-09-23T00:51:05.894Z,80.50
2017-09-23T00:53:33.426Z,80.50
2017-09-23T00:56:00.951Z,80.80
2017-09-23T00:58:29.319Z,80.90
2017-09-23T01:00:56.843Z,80.90
2017-09-23T01:03:24.374Z,81.20
2017-09-23T01:05:51.931Z,81.20
2017-09-23T01:08:19.467Z,81.70
2017-09-23T01:10:47.772Z,82.00
2017-09-23T01:13:15.538Z,81.80
2017-09-23T01:15:43.071Z,81.90
2017-09-23T01:18:11.371Z,82.90
2017-09-23T01:20:38.950Z,82.70
2017-09-23T01:23:06.484Z,82.60
2017-09-23T01:25:34.015Z,82.70
2017-09-23T01:28:01.573Z,83.10
2017-09-23T01:30:29.115Z,83.00
2017-09-23T01:32:56.648Z,82.50
2017-09-23T01:35:24.211Z,81.90
2017-09-23T01:37:51.743Z,81.90
2017-09-23T01:40:20.032Z,82.10
2017-09-23T01:42:47.599Z,82.80
2017-09-23T01:45:15.531Z,82.50
2017-09-23T01:47:43.844Z,83.00
2017-09-23T01:50:11.938Z,83.00
2017-09-23T01:52:39.471Z,82.80
2017-09-23T01:55:07.003Z,82.60
2017-09-23T01:57:35.331Z,82.60
2017-09-23T02:00:02.864Z,82.50
2017-09-23T02:02:30.507Z,82.50
2017-09-23T02:04:58.086Z,82.40
2017-09-23T02:07:25.628Z,82.40
2017-09-23T02:09:53.163Z,83.20
2017-09-23T02:12:20.711Z,83.80
2017-09-23T02:14:48.243Z,84.00
2017-09-23T02:17:16.455Z,83.70
2017-09-23T02:19:44.067Z,83.70
2017-09-23T02:22:11.600Z,83.30
2017-09-23T02:24:39.144Z,83.10
2017-09-23T02:27:06.760Z,83.60
2017-09-23T02:29:34.291Z,83.80
2017-09-23T02:32:01.828Z,83.20
2017-09-23T02:34:29.380Z,83.10
2017-09-23T02:36:56.907Z,83.50
2017-09-23T02:39:24.448Z,82.00
2017-09-23T02:41:52.019Z,81.90
2017-09-23T02:44:19.561Z,81.70
2017-09-23T02:46:47.132Z,81.30
2017-09-23T02:49:16.459Z,82.00
2017-09-23T02:51:44.280Z,82.50
2017-09-23T02:54:11.812Z,81.80
2017-09-23T02:56:40.147Z,81.40
2017-09-23T02:59:07.679Z,81.40
2017-09-23T03:01:35.980Z,81.60
2017-09-23T03:04:03.541Z,81.60
2017-09-23T03:06:31.075Z,81.30
2017-09-23T03:08:58.605Z,81.00
2017-09-23T03:11:26.183Z,80.70
2017-09-23T03:13:54.478Z,80.90
2017-09-23T03:16:22.011Z,80.70
2017-09-23T03:18:49.571Z,80.90
2017-09-23T03:21:17.106Z,81.10
2017-09-23T03:23:44.651Z,80.80
2017-09-23T03:26:12.264Z,80.90
2017-09-23T03:28:39.802Z,81.20
2017-09-23T03:31:07.336Z,81.30
2017-09-23T03:33:34.919Z,81.40
2017-09-23T03:36:02.454Z,81.50
2017-09-23T03:38:29.996Z,81.10
2017-09-23T03:40:57.559Z,81.10
2017-09-23T03:43:25.100Z,81.00
2017-09-23T03:45:52.641Z,81.10
2017-09-23T03:48:20.995Z,81.10
2017-09-23T03:50:48.531Z,81.10
2017-09-23T03:53:17.467Z,82.20
2017-09-23T03:55:45.080Z,82.20
2017-09-23T03:58:13.546Z,82.00
2017-09-23T04:00:41.071Z,82.00
2017-09-23T04:03:09.401Z,82.40
2017-09-23T04:05:36.928Z,82.50
2017-09-23T04:08:04.455Z,82.60
2017-09-23T04:10:32.038Z,82.90
2017-09-23T04:12:59.579Z,81.80
2017-09-23T04:15:27.115Z,81.50
2017-09-23T04:17:54.701Z,81.70
2017-09-23T04:20:22.244Z,81.40
2017-09-23T04:22:49.783Z,81.50
2017-09-23T04:25:17.464Z,81.40
2017-09-23T04:27:45.036Z,81.40
2017-09-23T04:30:12.584Z,81.60
2017-09-23T04:32:40.233Z,81.50
2017-09-23T04:35:08.556Z,82.40
2017-09-23T04:37:36.904Z,82.80
2017-09-23T04:40:04.501Z,82.80
2017-09-23T04:42:32.035Z,82.70
2017-09-23T04:44:59.575Z,82.50
2017-09-23T04:47:27.139Z,82.40
2017-09-23T04:49:54.723Z,82.10
2017-09-23T04:52:22.257Z,82.30
2017-09-23T04:54:50.404Z,82.50
2017-09-23T04:57:17.943Z,83.00
2017-09-23T04:59:45.472Z,82.80
2017-09-23T05:02:15.455Z,82.50
2017-09-23T05:04:42.985Z,82.60
2017-09-23T05:07:10.523Z,82.70
2017-09-23T05:09:38.847Z,82.70
2017-09-23T05:12:06.508Z,82.60
2017-09-23T05:14:34.109Z,82.70
2017-09-23T05:17:02.439Z,82.30
2017-09-23T05:19:30.013Z,82.30
2017-09-23T05:21:57.592Z,81.60
2017-09-23T05:24:25.239Z,81.80
2017-09-23T05:26:52.767Z,82.30
2017-09-23T05:29:20.307Z,82.20
2017-09-23T05:32:00.318Z,82.30
2017-09-23T05:34:27.863Z,82.40
2017-09-23T05:36:55.419Z,82.40
2017-09-23T05:39:23.007Z,81.30
2017-09-23T05:41:50.539Z,81.10
2017-09-23T05:44:18.127Z,80.70
2017-09-23T05:46:45.808Z,80.30
2017-09-23T05:49:24.530Z,79.90
2017-09-23T05:54:40.363Z,79.50
2017-09-23T05:57:08.628Z,79.70
2017-09-23T05:59:36.163Z,79.00
2017-09-23T06:02:03.754Z,78.70
2017-09-23T06:04:31.287Z,78.40
2017-09-23T06:06:58.823Z,78.80
2017-09-23T06:09:26.428Z,78.70
2017-09-23T06:11:53.968Z,78.50
2017-09-23T06:14:22.277Z,77.70
2017-09-23T06:16:49.849Z,77.60
2017-09-23T06:19:17.387Z,77.40
2017-09-23T06:21:44.931Z,77.50
2017-09-23T06:24:14.216Z,76.70
2017-09-23T06:26:41.761Z,76.70
2017-09-23T06:29:09.302Z,76.10
2017-09-23T06:31:36.872Z,75.60
2017-09-23T06:34:04.411Z,75.00
2017-09-23T06:36:31.982Z,74.80
2017-09-23T06:38:59.571Z,73.70
2017-09-23T06:41:27.196Z,73.40
2017-09-23T06:43:54.729Z,73.20
2017-09-23T06:46:22.375Z,72.70
2017-09-23T06:48:49.939Z,72.80
2017-09-23T06:51:17.480Z,73.10
2017-09-23T06:53:45.834Z,73.50
2017-09-23T06:56:15.450Z,73.40
2017-09-23T06:58:43.790Z,73.40
2017-09-23T07:01:11.339Z,72.60
2017-09-23T07:03:38.999Z,72.00
2017-09-23T07:06:06.533Z,72.20
2017-09-23T07:08:34.875Z,72.50
2017-09-23T07:11:02.436Z,72.40
2017-09-23T07:13:29.959Z,72.10
2017-09-23T07:15:57.519Z,71.10
2017-09-23T07:18:25.057Z,70.00
2017-09-23T07:20:53.351Z,68.30
2017-09-23T07:23:20.961Z,68.10
2017-09-23T07:25:48.510Z,68.60
2017-09-23T07:28:16.563Z,68.60
2017-09-23T07:30:44.410Z,68.70
2017-09-23T07:33:12.007Z,68.40
2017-09-23T07:35:39.540Z,67.80
2017-09-23T07:38:07.100Z,67.90
2017-09-23T07:40:34.739Z,68.40
2017-09-23T07:43:02.275Z,68.30
2017-09-23T07:45:29.836Z,67.30
2017-09-23T07:47:57.395Z,66.70
2017-09-23T07:50:24.939Z,61.10
2017-09-23T07:52:52.552Z,58.10
2017-09-23T07:55:20.098Z,55.60
2017-09-23T07:57:47.663Z,52.60
2017-09-23T08:00:17.843Z,50.80
2017-09-23T08:02:45.403Z,50.70
2017-09-23T08:05:25.347Z,49.60
2017-09-23T08:11:02.764Z,50.00
2017-09-23T08:13:30.300Z,50.80
2017-09-23T08:15:57.827Z,50.20
2017-09-23T08:18:25.394Z,50.10
2017-09-23T08:20:52.941Z,51.50
2017-09-23T08:23:20.487Z,49.30
2017-09-23T08:25:48.065Z,49.40
2017-09-23T08:28:16.418Z,47.50
2017-09-23T08:30:43.947Z,47.50
2017-09-23T08:33:11.539Z,49.10
2017-09-23T08:35:39.079Z,48.80
2017-09-23T08:38:06.607Z,49.50
2017-09-23T08:40:34.171Z,49.50
2017-09-23T08:43:01.711Z,47.50
2017-09-23T08:45:29.242Z,44.90
2017-09-23T08:47:56.854Z,42.20
2017-09-23T08:50:24.503Z,41.00
2017-09-23T08:52:52.037Z,41.30
2017-09-23T08:55:20.739Z,42.30
2017-09-23T08:57:48.273Z,42.20
2017-09-23T09:00:17.418Z,38.00
2017-09-23T09:02:45.610Z,38.00
2017-09-23T09:05:15.508Z,37.60
2017-09-23T09:07:43.038Z,37.50
2017-09-23T09:10:10.599Z,37.70
2017-09-23T09:12:38.139Z,38.20
2017-09-23T09:15:06.448Z,40.40
2017-09-23T09:17:34.036Z,40.10
2017-09-23T09:20:01.567Z,41.40
2017-09-23T09:22:29.099Z,40.90
2017-09-23T09:24:56.660Z,40.40
2017-09-23T09:27:24.985Z,41.50
2017-09-23T09:29:52.524Z,41.40
2017-09-23T09:32:22.264Z,41.10
2017-09-23T09:34:51.037Z,39.80
2017-09-23T09:37:19.039Z,39.90
2017-09-23T09:39:46.655Z,39.30
2017-09-23T09:42:16.288Z,36.90
2017-09-23T09:44:43.819Z,36.80
2017-09-23T09:47:11.378Z,37.40
2017-09-23T09:49:38.914Z,38.70
2017-09-23T09:52:07.220Z,41.90
2017-09-23T09:54:34.779Z,41.90
2017-09-23T09:57:02.324Z,42.20
2017-09-23T09:59:29.855Z,41.80
2017-09-23T10:01:57.478Z,41.60
2017-09-23T10:04:25.356Z,40.70
2017-09-23T10:06:52.889Z,40.70
2017-09-23T10:09:22.226Z,43.80
2017-09-23T10:11:49.762Z,43.70
2017-09-23T10:14:17.309Z,44.90
2017-09-23T10:16:44.883Z,45.50
2017-09-23T10:19:12.556Z,46.10
2017-09-23T10:21:40.366Z,45.50
2017-09-23T10:24:08.731Z,46.40
2017-09-23T10:26:36.267Z,46.40
2017-09-23T10:29:03.796Z,47.00
2017-09-23T10:31:31.419Z,48.10
2017-09-23T10:33:58.984Z,49.70
2017-09-23T10:36:27.447Z,49.80
2017-09-23T10:38:55.006Z,49.70
2017-09-23T10:41:23.228Z,49.20
2017-09-23T10:43:50.773Z,50.40
2017-09-23T10:46:18.374Z,49.80
2017-09-23T10:48:45.937Z,49.20
2017-09-23T10:51:15.371Z,47.80
2017-09-23T10:53:42.935Z,47.80
2017-09-23T10:56:10.475Z,46.60
2017-09-23T10:58:42.830Z,46.90
2017-09-23T11:01:10.422Z,46.80
2017-09-23T11:03:38.036Z,47.40
2017-09-23T11:06:10.163Z,46.60
2017-09-23T11:08:40.166Z,47.80
2017-09-23T11:11:07.703Z,48.30
2017-09-23T11:13:35.447Z,48.80
2017-09-23T11:16:03.784Z,49.00
2017-09-23T11:18:33.559Z,49.00
2017-09-23T11:21:01.099Z,49.00
2017-09-23T11:23:29.423Z,49.80
2017-09-23T11:25:57.722Z,50.60
2017-09-23T11:28:27.044Z,49.80
2017-09-23T11:30:54.655Z,49.70
2017-09-23T11:33:22.194Z,48.90
2017-09-23T11:35:49.727Z,50.10
2017-09-23T11:38:17.291Z,49.40
2017-09-23T11:40:44.823Z,49.20
2017-09-23T11:43:12.384Z,50.20
2017-09-23T11:45:40.706Z,49.70
2017-09-23T11:48:08.243Z,49.60
2017-09-23T11:50:35.774Z,49.60
2017-09-23T11:53:03.367Z,51.10
2017-09-23T11:55:31.663Z,50.50
2017-09-23T11:57:59.193Z,49.90
2017-09-23T12:00:26.749Z,50.20
2017-09-23T12:02:54.284Z,50.50
2017-09-23T12:05:21.819Z,52.50
2017-09-23T12:07:49.964Z,50.10
2017-09-23T12:10:17.501Z,48.80
2017-09-23T12:12:45.051Z,50.00
2017-09-23T12:15:12.763Z,51.50
2017-09-23T12:17:40.522Z,52.00
2017-09-23T12:20:08.053Z,48.40
2017-09-23T12:22:35.616Z,48.80
2017-09-23T12:25:03.155Z,50.10
2017-09-23T12:27:31.455Z,50.60
2017-09-23T12:29:59.015Z,50.50
2017-09-23T12:32:26.556Z,49.40
2017-09-23T12:34:54.091Z,49.60
2017-09-23T12:37:21.702Z,49.20
2017-09-23T12:39:49.240Z,51.50
2017-09-23T12:42:17.548Z,49.90
2017-09-23T12:44:45.107Z,49.80
2017-09-23T12:47:12.636Z,52.00
2017-09-23T12:49:40.168Z,51.30
2017-09-23T12:52:07.727Z,50.20
2017-09-23T12:54:35.310Z,49.00
2017-09-23T12:57:03.610Z,48.80
2017-09-23T12:59:31.194Z,49.50
2017-09-23T13:01:58.724Z,48.70
2017-09-23T13:04:26.287Z,48.70
2017-09-23T13:06:53.871Z,50.20
2017-09-23T13:09:21.627Z,49.10
2017-09-23T13:11:49.227Z,49.30
2017-09-23T13:14:16.800Z,49.00
2017-09-23T13:16:44.330Z,48.30
2017-09-23T13:19:11.859Z,47.70
2017-09-23T13:21:39.550Z,48.40
2017-09-23T13:24:07.108Z,49.60
2017-09-23T13:26:34.647Z,49.30
2017-09-23T13:29:02.226Z,49.60
2017-09-23T13:31:29.756Z,49.10
2017-09-23T13:33:57.289Z,48.90
2017-09-23T13:36:25.614Z,48.20
2017-09-23T13:38:53.150Z,48.10
2017-09-23T13:41:20.680Z,48.20
2017-09-23T13:43:48.267Z,49.70
2017-09-23T13:46:17.280Z,48.20
2017-09-23T13:48:44.825Z,48.20
2017-09-23T13:51:12.404Z,46.20
2017-09-23T13:53:39.939Z,47.30
2017-09-23T13:56:07.555Z,48.90
2017-09-23T13:58:35.116Z,48.60
2017-09-23T14:01:03.090Z,48.50
2017-09-23T14:03:32.137Z,48.30
2017-09-23T14:05:59.729Z,48.30
2017-09-23T14:08:27.269Z,48.20
2017-09-23T14:10:54.838Z,47.40
2017-09-23T14:13:22.406Z,47.70
2017-09-23T14:15:49.943Z,47.70
2017-09-23T14:18:17.475Z,47.40
2017-09-23T14:20:45.800Z,47.90
2017-09-23T14:23:26.184Z,47.90
2017-09-23T14:29:19.259Z,50.80
2017-09-23T14:31:46.815Z,51.00
2017-09-23T14:34:16.309Z,52.10
2017-09-23T14:36:43.924Z,52.10
2017-09-23T14:39:11.579Z,52.50
2017-09-23T14:41:39.900Z,52.80
2017-09-23T14:44:07.521Z,52.70
2017-09-23T14:46:35.104Z,52.70
2017-09-23T14:49:02.665Z,53.10
2017-09-23T14:51:30.280Z,53.00
2017-09-23T14:53:57.873Z,52.60
2017-09-23T14:56:25.446Z,53.00
2017-09-23T14:58:53.084Z,53.10
2017-09-23T15:01:21.438Z,53.50
2017-09-23T15:03:49.003Z,54.00
2017-09-23T15:06:16.650Z,53.80
2017-09-23T15:08:44.273Z,54.20
2017-09-23T15:11:12.494Z,54.70
2017-09-23T15:13:40.916Z,53.00
2017-09-23T15:16:08.520Z,52.90
2017-09-23T15:18:36.132Z,53.40
2017-09-23T15:21:04.137Z,54.10
2017-09-23T15:23:31.890Z,55.00
2017-09-23T15:26:00.277Z,55.20
2017-09-23T15:28:27.961Z,55.20
2017-09-23T15:30:55.576Z,55.60
2017-09-23T15:33:23.177Z,55.30
2017-09-23T15:35:51.076Z,56.00
2017-09-23T15:38:19.418Z,56.20
2017-09-23T15:40:46.984Z,56.20
2017-09-23T15:43:16.376Z,57.40
2017-09-23T15:45:43.959Z,57.30
2017-09-23T15:48:11.708Z,57.40
2017-09-23T15:50:39.455Z,57.20
2017-09-23T15:53:07.821Z,57.60
2017-09-23T15:55:36.617Z,57.60
2017-09-23T15:58:05.566Z,57.50
2017-09-23T16:00:34.020Z,57.70
2017-09-23T16:03:01.653Z,57.70
2017-09-23T16:05:29.299Z,58.20
2017-09-23T16:07:57.440Z,58.10
2017-09-23T16:10:26.610Z,58.20
2017-09-23T16:12:55.027Z,58.10
2017-09-23T16:15:23.343Z,58.50
2017-09-23T16:17:50.884Z,58.50
2017-09-23T16:20:19.316Z,58.70
2017-09-23T16:22:46.876Z,58.90
2017-09-23T16:25:16.827Z,59.00
2017-09-23T16:27:45.159Z,58.90
2017-09-23T16:30:12.939Z,58.90
2017-09-23T16:32:40.544Z,59.00
2017-09-23T16:35:08.220Z,59.10
2017-09-23T16:37:35.761Z,59.20
2017-09-23T16:40:03.312Z,60.70
2017-09-23T16:42:31.688Z,61.30
2017-09-23T16:44:59.252Z,61.20
2017-09-23T16:47:27.572Z,61.70
2017-09-23T16:49:55.919Z,62.70
2017-09-23T16:52:23.480Z,62.70
2017-09-23T16:54:51.784Z,63.50
2017-09-23T16:57:20.143Z,63.30
2017-09-23T16:59:47.696Z,63.20
2017-09-23T17:02:17.239Z,63.80
2017-09-23T17:04:44.864Z,63.80
2017-09-23T17:07:12.424Z,64.20
2017-09-23T17:09:39.985Z,64.60
2017-09-23T17:12:08.335Z,65.50
2017-09-23T17:14:36.361Z,65.40
2017-09-23T17:17:03.912Z,65.00
2017-09-23T17:19:31.480Z,65.40
2017-09-23T17:21:59.040Z,66.00
2017-09-23T17:24:26.861Z,66.70
2017-09-23T17:26:54.534Z,66.70
2017-09-23T17:29:22.084Z,66.90
2017-09-23T17:31:50.407Z,66.20
2017-09-23T17:34:17.993Z,66.10
2017-09-23T17:36:45.548Z,65.90
2017-09-23T17:39:14.696Z,65.80
2017-09-23T17:41:42.303Z,65.70
2017-09-23T17:44:09.856Z,66.40
2017-09-23T17:46:37.412Z,65.80
2017-09-23T17:49:05.024Z,65.20
2017-09-23T17:51:32.603Z,65.00
2017-09-23T17:54:00.157Z,66.10
2017-09-23T17:56:27.749Z,65.80
2017-09-23T17:58:55.310Z,65.90
2017-09-23T18:01:22.872Z,66.00
2017-09-23T18:03:50.509Z,66.10
2017-09-23T18:06:18.068Z,66.20
2017-09-23T18:08:45.616Z,66.50
2017-09-23T18:11:14.629Z,66.50
2017-09-23T18:13:42.189Z,66.90
2017-09-23T18:16:09.777Z,66.50
2017-09-23T18:18:37.348Z,66.00
2017-09-23T18:21:04.885Z,65.80
2017-09-23T18:23:32.432Z,65.70
2017-09-23T18:25:59.996Z,65.60
2017-09-23T18:28:27.540Z,65.70
2017-09-23T18:30:55.097Z,65.60
2017-09-23T18:33:22.715Z,65.70
2017-09-23T18:35:50.251Z,66.10
2017-09-23T18:38:18.713Z,66.00
2017-09-23T18:40:46.287Z,65.80
2017-09-23T18:43:15.484Z,65.50
2017-09-23T18:45:43.019Z,65.70
2017-09-23T18:48:10.599Z,65.70
2017-09-23T18:50:38.131Z,66.20
2017-09-23T18:53:05.674Z,66.20
2017-09-23T18:55:33.263Z,66.70
2017-09-23T18:58:00.795Z,67.10
2017-09-23T19:00:29.152Z,67.60
2017-09-23T19:02:56.704Z,67.50
2017-09-23T19:05:24.233Z,67.80
2017-09-23T19:07:51.771Z,68.10
2017-09-23T19:10:19.398Z,68.60
2017-09-23T19:12:46.998Z,70.10
2017-09-23T19:15:15.541Z,69.80
2017-09-23T19:17:43.171Z,70.20
2017-09-23T19:20:10.755Z,70.70
2017-09-23T19:22:38.400Z,70.70
2017-09-23T19:25:06.046Z,69.70
2017-09-23T19:27:33.615Z,70.00
2017-09-23T19:30:01.197Z,70.00
2017-09-23T19:32:28.759Z,70.00
2017-09-23T19:34:56.396Z,70.40
2017-09-23T19:37:23.939Z,70.20
2017-09-23T19:39:51.526Z,70.40
2017-09-23T19:42:19.236Z,70.60
2017-09-23T19:44:47.583Z,71.40
2017-09-23T19:47:17.297Z,71.50
2017-09-23T19:49:44.835Z,71.30
2017-09-23T19:52:12.444Z,71.60
2017-09-23T19:54:40.846Z,71.30
2017-09-23T19:57:08.438Z,71.30
2017-09-23T19:59:35.967Z,71.40
2017-09-23T20:02:03.669Z,71.60
2017-09-23T20:04:31.359Z,71.80
2017-09-23T20:06:58.968Z,72.30
2017-09-23T20:09:26.581Z,72.30
2017-09-23T20:11:54.135Z,72.30
2017-09-23T20:14:21.671Z,72.40
2017-09-23T20:16:49.310Z,72.50
2017-09-23T20:19:16.979Z,72.60
2017-09-23T20:21:44.535Z,72.80
2017-09-23T20:24:12.595Z,72.90
2017-09-23T20:26:40.132Z,73.00
2017-09-23T20:29:07.668Z,73.20
2017-09-23T20:31:35.228Z,73.00
2017-09-23T20:34:02.778Z,73.10
2017-09-23T20:36:30.322Z,74.00
2017-09-23T20:38:57.882Z,74.40
2017-09-23T20:41:25.416Z,74.10
2017-09-23T20:43:52.950Z,74.30
2017-09-23T20:46:20.537Z,74.50
2017-09-23T20:48:48.075Z,74.50
2017-09-23T20:51:17.200Z,77.20
2017-09-23T20:53:44.781Z,77.10
2017-09-23T20:56:12.307Z,78.00
2017-09-23T20:58:39.852Z,78.20
2017-09-23T21:01:07.455Z,78.20
2017-09-23T21:03:34.987Z,78.10
2017-09-23T21:06:02.524Z,77.50
2017-09-23T21:08:30.116Z,77.10
2017-09-23T21:10:58.020Z,76.80
2017-09-23T21:13:25.563Z,76.60
2017-09-23T21:15:53.127Z,76.30
2017-09-23T21:18:20.660Z,76.30
2017-09-23T21:20:48.624Z,76.70
2017-09-23T21:23:17.237Z,76.60
2017-09-23T21:25:44.767Z,76.60
2017-09-23T21:28:12.295Z,76.30
2017-09-23T21:30:39.883Z,76.20
2017-09-23T21:33:07.427Z,76.30
2017-09-23T21:35:35.728Z,76.80
2017-09-23T21:38:03.310Z,76.80
2017-09-23T21:40:30.919Z,76.90
2017-09-23T21:42:58.455Z,76.80
2017-09-23T21:45:26.011Z,76.60
2017-09-23T21:47:53.543Z,77.10
2017-09-23T21:50:21.081Z,77.50
2017-09-23T21:52:48.677Z,77.40
2017-09-23T21:55:16.474Z,77.50
2017-09-23T21:57:44.007Z,77.20
2017-09-23T22:00:11.577Z,77.90
2017-09-23T22:02:39.114Z,77.70
2017-09-23T22:05:06.644Z,77.60
2017-09-23T22:07:34.223Z,77.50
2017-09-23T22:10:01.755Z,77.60
2017-09-23T22:12:29.290Z,77.80
2017-09-23T22:14:56.912Z,78.20
2017-09-23T22:17:24.447Z,78.70
2017-09-23T22:19:51.987Z,78.60
2017-09-23T22:22:20.192Z,78.70
2017-09-23T22:24:47.731Z,78.50
2017-09-23T22:27:17.253Z,78.10
2017-09-23T22:29:44.821Z,78.10
2017-09-23T22:32:12.373Z,78.30
2017-09-23T22:34:40.004Z,78.30
2017-09-23T22:37:07.771Z,78.00
2017-09-23T22:39:36.136Z,78.70
2017-09-23T22:42:03.736Z,78.40
2017-09-23T22:44:31.372Z,78.10
2017-09-23T22:46:59.848Z,77.90
2017-09-23T22:49:27.544Z,77.90
2017-09-23T22:51:55.213Z,77.80
2017-09-23T22:54:23.620Z,78.10
2017-09-23T22:56:51.220Z,78.00
2017-09-23T22:59:19.700Z,78.40
2017-09-23T23:01:47.332Z,78.40
2017-09-23T23:04:17.310Z,78.10
2017-09-23T23:06:45.067Z,78.10
2017-09-23T23:09:12.686Z,78.20
2017-09-23T23:11:40.364Z,78.40
2017-09-23T23:14:08.893Z,78.30
2017-09-23T23:16:36.480Z,78.30
2017-09-23T23:19:04.037Z,78.20
2017-09-23T23:21:31.736Z,78.30
2017-09-23T23:24:00.444Z,78.00
2017-09-23T23:26:28.056Z,78.00
2017-09-23T23:28:55.681Z,78.10
2017-09-23T23:31:23.266Z,77.90
2017-09-23T23:33:50.819Z,78.00
2017-09-23T23:36:18.420Z,78.40
2017-09-23T23:38:46.051Z,78.50
2017-09-23T23:41:24.468Z,78.70
2017-09-23T23:48:33.230Z,78.90
2017-09-23T23:51:00.830Z,79.40
2017-09-23T23:53:28.556Z,79.70
2017-09-23T23:55:56.152Z,79.50
2017-09-23T23:58:23.727Z,80.30
